Flight Track Log - Related Links

Times and Time Zones

All times are in EDT time to prevent confusion due to time zone crossing. See the AAY844 flight status page for this flight to view local times or setup timezone preferences in your user account.

Time Position Orientation Groundspeed Altitude Reporting Facility
EDT Latitude Longitude Course Direction KTS MPH feet Rate Location/Type
Fri 02:51:41 PM 27.9333 -82.6833 North 154 177 600  Level Tampa TRACON
Fri 02:52:05 PM 27.9500 -82.7000 319° Northwest 164 189 1,500 1,714 Climbing Tampa TRACON
Fri 02:53:05 PM 28.0000 -82.6667 30° Northeast 239 275 3,000 1,200 Climbing Tampa TRACON
Fri 02:54:05 PM 28.0833 -82.6667 360° North 302 348 3,900 1,000 Climbing Tampa TRACON
Fri 02:55:05 PM 28.1500 -82.6667 360° North 289 333 5,000 2,200 Climbing Tampa TRACON
Fri 02:56:05 PM 28.2333 -82.6833 350° North 285 328 8,300 2,162 Climbing Tampa TRACON
Fri 02:57:00 PM 28.5957 -82.6479 North  Level FlightAware Approximate
Fri 02:58:22 PM 28.4231 -82.6708 North 306 352 12,100  Level Jacksonville Center
Fri 02:59:22 PM 28.5294 -82.6658 North 343 395 14,100 2,150 Climbing Jacksonville Center
Fri 03:00:22 PM 28.6400 -82.6583 North 373 429 16,400 1,900 Climbing Jacksonville Center
Fri 03:01:22 PM 28.7675 -82.6511 North 400 460 17,900 1,750 Climbing Jacksonville Center
Fri 03:02:22 PM 28.8883 -82.6436 North 413 475 19,900 1,850 Climbing Jacksonville Center
Fri 03:03:22 PM 29.0117 -82.6361 North 425 489 21,600 1,600 Climbing Jacksonville Center
Fri 03:04:22 PM 29.1347 -82.6286 North 436 502 23,100 1,400 Climbing Jacksonville Center
Fri 03:05:22 PM 29.2642 -82.6236 North 443 510 24,400 1,500 Climbing Jacksonville Center
Fri 03:06:22 PM 29.3914 -82.6136 North 454 522 26,100 1,750 Climbing Jacksonville Center
Fri 03:07:22 PM 29.5208 -82.6061 North 459 528 27,900 1,650 Climbing Jacksonville Center
Fri 03:08:22 PM 29.6314 -82.5986 North 459 528 29,400 1,450 Climbing Jacksonville Center
Fri 03:09:22 PM 29.7547 -82.5936 North 453 521 30,800 750 Climbing Jacksonville Center
Fri 03:10:22 PM 29.8758 -82.5858 North 448 516 30,900 50 Climbing Jacksonville Center
Fri 03:11:22 PM 29.9967 -82.5783 North 435 501 30,900  Level Jacksonville Center
Fri 03:12:22 PM 30.1200 -82.5756 North 435 501 30,900  Level Jacksonville Center
Fri 03:13:22 PM 30.2411 -82.5703 North 440 506 30,900  Level Jacksonville Center
Fri 03:14:22 PM 30.3642 -82.5628 North 440 506 30,900  Level Jacksonville Center
Fri 03:15:22 PM 30.4875 -82.5575 North 440 506 30,900  Level Jacksonville Center
Fri 03:16:22 PM 30.6064 -82.5183 16° North 440 506 30,900  Level Jacksonville Center
Fri 03:17:22 PM 30.7211 -82.4697 20° North 435 501 30,900  Level Jacksonville Center
Fri 03:18:22 PM 30.8378 -82.4231 19° North 440 506 30,900  Level Jacksonville Center
Fri 03:19:22 PM 30.9567 -82.3767 18° North 440 506 30,900  Level Jacksonville Center
Fri 03:20:22 PM 31.0711 -82.3322 18° North 440 506 30,900  Level Jacksonville Center
Fri 03:21:22 PM 31.1881 -82.2856 19° North 440 506 30,900  Level Jacksonville Center
Fri 03:22:22 PM 31.3047 -82.2386 19° North 440 506 30,900  Level Jacksonville Center
Fri 03:23:22 PM 31.4233 -82.1889 20° North 445 512 30,900  Level Jacksonville Center
Fri 03:24:22 PM 31.5442 -82.1442 18° North 445 512 30,900 50 Level Jacksonville Center
Fri 03:25:22 PM 31.6672 -82.0894 21° North 428 493 31,000 50 Climbing Jacksonville Center
Fri 03:26:22 PM 31.7900 -82.0419 18° North 435 501 31,000  Level Jacksonville Center
Fri 03:27:22 PM 31.9044 -81.9944 19° North 442 509 31,000  Level Jacksonville Center
Fri 03:28:22 PM 32.0106 -81.9517 19° North 442 509 31,000  Level Jacksonville Center
Fri 03:29:22 PM 32.1375 -81.8917 22° Northeast 447 514 31,000  Level Jacksonville Center
Fri 03:30:22 PM 32.2519 -81.8386 21° North 447 514 31,000  Level Jacksonville Center
Fri 03:31:22 PM 32.3558 -81.7858 23° Northeast 442 509 31,000  Level Jacksonville Center
Fri 03:32:22 PM 32.4828 -81.7278 21° North 442 509 31,000  Level Jacksonville Center
Fri 03:33:22 PM 32.5950 -81.6744 22° Northeast 442 509 31,000 -50 Level Jacksonville Center
Fri 03:34:22 PM 32.7092 -81.6186 22° Northeast 430 495 30,900 -50 Descending Jacksonville Center
Fri 03:35:22 PM 32.8233 -81.5625 22° Northeast 435 501 30,900  Level Jacksonville Center
Fri 03:36:21 PM 32.9356 -81.5089 22° Northeast 435 501 30,900  Level Jacksonville Center
Fri 03:37:22 PM 33.0497 -81.4528 22° Northeast 435 501 30,900 347 Level Jacksonville Center
Fri 03:38:22 PM 33.1619 -81.3989 22° Northeast 435 501 31,600 900 Climbing Jacksonville Center
Fri 03:39:22 PM 33.2717 -81.3447 22° Northeast 435 501 32,700 650 Climbing Jacksonville Center
Fri 03:40:22 PM 33.3858 -81.2906 22° Northeast 430 495 32,900 100 Climbing Jacksonville Center
Fri 03:41:22 PM 33.5000 -81.2336 23° Northeast 430 495 32,900  Level Jacksonville Center
Fri 03:42:22 PM 33.6139 -81.1767 23° Northeast 435 501 32,900  Level Jacksonville Center
Fri 03:43:22 PM 33.7031 -81.1350 21° North 435 501 32,900 50 Level Jacksonville Center
Fri 03:44:22 PM 33.8253 -81.0675 25° Northeast 435 501 33,000  Climbing Jacksonville Center
Fri 03:45:22 PM 33.9242 -80.9881 34° Northeast 428 493 32,900 -50 Descending Jacksonville Center
Fri 03:46:22 PM 34.0147 -80.8908 42° Northeast 425 489 32,900  Level Jacksonville Center
Fri 03:47:22 PM 34.1025 -80.7883 44° Northeast 436 502 32,900  Level Jacksonville Center
Fri 03:48:22 PM 34.1947 -80.6883 42° Northeast 441 507 32,900  Level Jacksonville Center
Fri 03:49:22 PM 34.2850 -80.5906 42° Northeast 435 501 32,900  Level Jacksonville Center
Fri 03:50:22 PM 34.3747 -80.4875 43° Northeast 435 501 32,900 35 Level Jacksonville Center
Fri 03:52:12 PM 34.5378 -80.3092 42° Northeast 438 504 33,000 35 Climbing Washington Center
Fri 03:53:13 PM 34.6353 -80.2136 39° Northeast 438 504 33,000  Level Washington Center
Fri 03:54:11 PM 34.7369 -80.1208 37° Northeast 443 510 33,000  Level Washington Center
Fri 03:55:11 PM 34.8431 -80.0181 38° Northeast 448 516 33,000  Level Washington Center
Fri 03:56:12 PM 34.9406 -79.9219 39° Northeast 448 516 33,000  Level Washington Center
Fri 03:57:12 PM 35.0419 -79.8311 36° Northeast 448 516 33,000  Level Washington Center
Fri 03:58:13 PM 35.1431 -79.7372 37° Northeast 453 521 33,000  Level Washington Center
Fri 03:59:11 PM 35.2383 -79.6381 40° Northeast 453 521 33,000  Level Washington Center
Fri 04:00:12 PM 35.3256 -79.5303 45° Northeast 441 507 33,000  Level Washington Center
Fri 04:01:12 PM 35.4106 -79.4172 47° Northeast 441 507 33,000  Level Washington Center
Fri 04:02:12 PM 35.4889 -79.3139 47° Northeast 452 520 33,000  Level Washington Center
Fri 04:03:11 PM 35.5717 -79.2003 48° Northeast 452 520 33,000  Level Washington Center
Fri 04:04:12 PM 35.6608 -79.0792 48° Northeast 447 514 33,000  Level Washington Center
Fri 04:05:13 PM 35.7414 -78.9597 50° Northeast 447 514 33,000  Level Washington Center
Fri 04:06:13 PM 35.8056 -78.8267 59° Northeast 447 514 33,000  Level Washington Center
Fri 04:07:11 PM 35.8739 -78.6961 57° Northeast 447 514 33,000  Level Washington Center
Fri 04:08:11 PM 35.9331 -78.5806 58° Northeast 447 514 33,000  Level Washington Center
Fri 04:09:13 PM 36.0008 -78.4497 57° Northeast 447 514 33,000  Level Washington Center
Fri 04:10:11 PM 36.0644 -78.3208 59° Northeast 441 507 33,000  Level Washington Center
Fri 04:11:13 PM 36.1319 -78.1919 57° Northeast 441 507 33,000  Level Washington Center
Fri 04:12:13 PM 36.1975 -78.0603 58° Northeast 441 507 33,000  Level Washington Center
Fri 04:13:11 PM 36.2647 -77.9311 57° Northeast 441 507 33,000  Level Washington Center
Fri 04:14:11 PM 36.3278 -77.7989 59° Northeast 441 507 33,000  Level Washington Center
Fri 04:15:12 PM 36.3947 -77.6692 57° Northeast 441 507 33,000  Level Washington Center
Fri 04:16:13 PM 36.4639 -77.5211 60° Northeast 441 507 33,000  Level Washington Center
Fri 04:17:11 PM 36.5264 -77.3908 59° Northeast 441 507 33,000  Level Washington Center
Fri 04:18:12 PM 36.5931 -77.2553 58° Northeast 441 507 33,000  Level Washington Center
Fri 04:19:12 PM 36.6575 -77.1219 59° Northeast 441 507 33,000  Level Washington Center
Fri 04:20:13 PM 36.7319 -76.9939 54° Northeast 441 507 33,000  Level Washington Center
Fri 04:21:12 PM 36.8311 -76.9050 36° Northeast 435 501 33,000  Level Washington Center
Fri 04:22:12 PM 36.9322 -76.8131 36° Northeast 435 501 33,000  Level Washington Center
Fri 04:23:13 PM 37.0311 -76.7211 37° Northeast 441 507 33,000  Level Washington Center
Fri 04:24:13 PM 37.1342 -76.6286 36° Northeast 441 507 33,000  Level Washington Center
Fri 04:25:12 PM 37.2244 -76.5492 35° Northeast 446 513 33,000  Level Washington Center
Fri 04:26:13 PM 37.3253 -76.4589 35° Northeast 446 513 33,000  Level Washington Center
Fri 04:27:13 PM 37.4239 -76.3686 36° Northeast 446 513 33,000  Level Washington Center
Fri 04:28:11 PM 37.5247 -76.2778 36° Northeast 446 513 33,000  Level Washington Center
Fri 04:29:13 PM 37.6211 -76.1844 37° Northeast 441 507 33,000 -50 Level Washington Center
Fri 04:30:11 PM 37.7342 -76.0881 34° Northeast 441 507 32,900  Descending Washington Center
Fri 04:31:12 PM 37.8181 -76.0019 39° Northeast 435 501 33,000 50 Climbing Washington Center
Fri 04:32:11 PM 37.9161 -75.9075 37° Northeast 435 501 33,000 -50 Level Washington Center
Fri 04:33:12 PM 38.0292 -75.8131 33° Northeast 435 501 32,900  Descending Washington Center
Fri 04:34:13 PM 38.1125 -75.7236 40° Northeast 435 501 33,000 50 Climbing Washington Center
Fri 04:35:13 PM 38.2086 -75.6314 37° Northeast 435 501 33,000  Level Washington Center
Fri 04:36:11 PM 38.3086 -75.5414 35° Northeast 435 501 33,000 -50 Level Washington Center
Fri 04:37:13 PM 38.4169 -75.4778 25° Northeast 430 495 32,900 -49 Descending Washington Center
Fri 04:38:13 PM 38.5294 -75.4378 16° North 416 479 32,900  Level Washington Center
Fri 04:39:11 PM 38.6422 -75.3922 18° North 416 479 32,900 50 Level Washington Center
Fri 04:40:12 PM 38.7567 -75.3442 18° North 416 479 33,000  Climbing Washington Center
Fri 04:41:13 PM 38.8650 -75.2931 20° North 416 479 32,900 -50 Descending Washington Center
Fri 04:42:11 PM 38.9775 -75.2497 17° North 421 484 32,900  Level Washington Center
Fri 04:43:11 PM 39.0856 -75.1986 20° North 421 484 32,900  Level Washington Center
Fri 04:44:13 PM 39.1853 -75.1150 33° Northeast 421 484 32,900  Level Washington Center
Fri 04:45:14 PM 39.2786 -75.0125 40° Northeast 421 484 32,900 -102 Level Washington Center
Fri 04:46:11 PM 39.3739 -74.9122 39° Northeast 432 497 32,700 -559 Descending Washington Center
Fri 04:47:12 PM 39.4650 -74.8094 41° Northeast 432 497 31,800 -934 Descending Washington Center
Fri 04:48:13 PM 39.5603 -74.7006 41° Northeast 437 503 30,800 -1,361 Descending Washington Center
Fri 04:49:11 PM 39.6553 -74.5942 41° Northeast 437 503 29,100 -1,821 Descending Washington Center
Fri 04:51:01 PM 39.8436 -74.3856 40° Northeast 448 516 25,700 -1,482 Descending New York Center
Fri 04:52:01 PM 39.9447 -74.2744 40° Northeast 481 554 24,900 -397 Descending New York Center
Fri 04:53:02 PM 40.0439 -74.1628 41° Northeast 476 548 24,900  Level New York Center
Fri 04:54:01 PM 40.1453 -74.0483 41° Northeast 471 542 24,900  Level New York Center
Fri 04:55:01 PM 40.2422 -73.9361 41° Northeast 470 541 24,900  Level New York Center
Fri 04:56:01 PM 40.3408 -73.8261 40° Northeast 470 541 24,900 50 Level New York Center
Fri 04:57:01 PM 40.4375 -73.7161 41° Northeast 470 541 25,000 50 Climbing New York Center
Fri 04:58:01 PM 40.5297 -73.6081 42° Northeast 458 527 25,000 -420 Level New York Center
Fri 04:59:38 PM 40.6828 -73.4306 41° Northeast 463 533 23,900 -1,304 Descending Boston Center
Fri 05:00:42 PM 40.7750 -73.3219 42° Northeast 441 507 21,500 -1,887 Descending Boston Center
Fri 05:01:42 PM 40.8544 -73.2311 41° Northeast 421 484 20,000 -744 Descending Boston Center
Fri 05:02:43 PM 40.9506 -73.1739 24° Northeast 383 441 20,000 -494 Level Boston Center
Fri 05:03:07 PM 41.0103 -73.1817 354° North 363 418 19,300 -1,034 Descending Boston Center
Fri 05:04:10 PM 41.0947 -73.2225 340° North 357 411 18,500 -1,016 Descending Boston Center
Fri 05:05:11 PM 41.1819 -73.2708 337° Northwest 344 396 17,200 -1,377 Descending Boston Center
Fri 05:06:12 PM 41.2789 -73.3236 338° Northwest 338 389 15,700 -1,463 Descending Boston Center
Fri 05:07:14 PM 41.3664 -73.3717 338° Northwest 333 383 14,200 -1,327 Descending Boston Center
Fri 05:08:05 PM 41.4381 -73.4122 337° Northwest 333 383 13,200 -1,221 Descending Boston Center
Fri 05:09:07 PM 41.5208 -73.4592 337° Northwest 329 379 11,900 -1,180 Descending Boston Center
Fri 05:10:07 PM 41.6036 -73.5061 337° Northwest 304 350 10,800 -1,113 Descending Boston Center
Fri 05:11:11 PM 41.6283 -73.5967 290° West 270 311 9,600 -1,452 Descending Boston Center
Fri 05:12:11 PM 41.6447 -73.7014 282° West 269 310 7,800 -1,736 Descending Boston Center
Fri 05:13:12 PM 41.6131 -73.7922 245° Southwest 271 312 6,100 -1,776 Descending Boston Center
Fri 05:14:16 PM 41.5767 -73.8753 240° Southwest 263 303 4,100 -1,371 Descending Boston Center
Fri 05:16:29 PM 41.5167 -74.0333 243° Southwest 154 177 1,600 -1,052 Descending New York TRACON
Fri 05:17:30 PM 41.5167 -74.0833 270° West 133 153 700 -885 Descending New York TRACON

Login

Don't have an account? Register now (free) for customized features, flight alerts, and more!